createdAt,value
2016-05-31T00:00:16.187Z,22.64
2016-05-31T00:01:16.033Z,22.59
2016-05-31T00:02:16.177Z,22.7
2016-05-31T00:03:16.164Z,22.69
2016-05-31T00:04:16.447Z,22.67
2016-05-31T00:05:16.138Z,22.66
2016-05-31T00:06:16.110Z,22.69
2016-05-31T00:07:16.096Z,22.67
2016-05-31T00:08:16.099Z,22.64
2016-05-31T00:09:16.102Z,22.66
2016-05-31T00:10:16.074Z,22.66
2016-05-31T00:11:16.060Z,22.61
2016-05-31T00:12:16.454Z,22.57
2016-05-31T00:13:15.878Z,22.66
2016-05-31T00:14:16.006Z,22.69
2016-05-31T00:15:16.009Z,22.64
2016-05-31T00:16:15.824Z,22.7
2016-05-31T00:17:15.967Z,22.67
2016-05-31T00:18:15.969Z,22.66
2016-05-31T00:19:15.816Z,22.61
2016-05-31T00:20:16.444Z,22.69
2016-05-31T00:21:15.931Z,22.64
2016-05-31T00:22:15.933Z,22.57
2016-05-31T00:23:16.592Z,22.59
2016-05-31T00:24:15.875Z,22.64
2016-05-31T00:25:15.864Z,22.64
2016-05-31T00:26:15.866Z,22.57
2016-05-31T00:27:15.853Z,22.61
2016-05-31T00:28:15.730Z,22.61
2016-05-31T00:29:15.828Z,22.67
2016-05-31T00:30:15.658Z,22.67
2016-05-31T00:31:15.802Z,22.63
2016-05-31T00:32:15.788Z,22.66
2016-05-31T00:33:15.760Z,22.69
2016-05-31T00:34:15.763Z,22.7
2016-05-31T00:35:15.594Z,22.67
2016-05-31T00:36:15.736Z,22.69
2016-05-31T00:37:15.724Z,22.63
2016-05-31T00:38:16.788Z,22.67
2016-05-31T00:39:15.683Z,22.64
2016-05-31T00:40:15.685Z,22.66
2016-05-31T00:41:15.515Z,22.67
2016-05-31T00:42:15.659Z,22.69
2016-05-31T00:43:15.630Z,22.69
2016-05-31T00:44:15.727Z,22.66
2016-05-31T00:45:15.448Z,22.64
2016-05-31T00:46:15.607Z,22.61
2016-05-31T00:47:15.579Z,22.61
2016-05-31T00:48:15.410Z,22.66
2016-05-31T00:49:15.585Z,22.64
2016-05-31T00:50:15.540Z,22.67
2016-05-31T00:51:15.386Z,22.61
2016-05-31T00:52:15.734Z,22.61
2016-05-31T00:53:15.517Z,22.67
2016-05-31T00:54:15.348Z,22.63
2016-05-31T00:55:15.475Z,22.59
2016-05-31T00:56:15.462Z,22.66
2016-05-31T00:57:15.309Z,22.61
2016-05-31T00:58:15.452Z,22.6
2016-05-31T00:59:15.439Z,22.6
2016-05-31T01:00:16.489Z,22.64
2016-05-31T01:01:15.413Z,22.66
2016-05-31T01:02:15.228Z,22.64
2016-05-31T01:03:15.388Z,22.64
2016-05-31T01:04:15.359Z,22.61
2016-05-31T01:05:15.346Z,22.6
2016-05-31T01:06:15.333Z,22.63
2016-05-31T01:07:15.383Z,22.61
2016-05-31T01:08:15.197Z,22.57
2016-05-31T01:09:15.294Z,22.57
2016-05-31T01:10:15.297Z,22.61
2016-05-31T01:11:15.268Z,22.61
2016-05-31T01:12:15.255Z,22.6
2016-05-31T01:13:15.243Z,22.57
2016-05-31T01:14:15.229Z,22.59
2016-05-31T01:15:15.373Z,22.54
2016-05-31T01:16:15.048Z,22.57
2016-05-31T01:17:15.190Z,22.61
2016-05-31T01:18:15.178Z,22.63
2016-05-31T01:19:15.181Z,22.56
2016-05-31T01:20:15.167Z,22.63
2016-05-31T01:21:15.154Z,22.6
2016-05-31T01:22:15.142Z,22.61
2016-05-31T01:23:15.581Z,22.63
2016-05-31T01:24:15.116Z,22.61
2016-05-31T01:25:15.150Z,22.57
2016-05-31T01:26:15.090Z,22.51
2016-05-31T01:27:15.467Z,22.59
2016-05-31T01:28:15.064Z,22.51
2016-05-31T01:29:15.036Z,22.48
2016-05-31T01:30:15.039Z,22.56
2016-05-31T01:31:15.416Z,22.49
2016-05-31T01:32:14.997Z,22.48
2016-05-31T01:33:14.999Z,22.48
2016-05-31T01:34:14.972Z,22.57
2016-05-31T01:35:14.974Z,22.52
2016-05-31T01:36:14.960Z,22.64
2016-05-31T01:37:14.933Z,22.6
2016-05-31T01:38:15.185Z,22.6
2016-05-31T01:39:15.406Z,22.6
2016-05-31T01:40:14.908Z,22.57
2016-05-31T01:41:14.880Z,22.51
2016-05-31T01:42:14.867Z,22.61
2016-05-31T01:43:14.854Z,22.56
2016-05-31T01:44:14.857Z,22.61
2016-05-31T01:45:14.829Z,22.6
2016-05-31T01:46:14.815Z,22.6
2016-05-31T01:47:15.443Z,22.6
2016-05-31T01:48:14.790Z,22.59
2016-05-31T01:49:14.777Z,22.59
2016-05-31T01:50:14.779Z,22.57
2016-05-31T01:51:14.751Z,22.61
2016-05-31T01:52:14.598Z,22.63
2016-05-31T01:53:15.834Z,22.6
2016-05-31T01:54:14.728Z,22.59
2016-05-31T01:55:15.449Z,22.59
2016-05-31T01:56:14.687Z,22.57
2016-05-31T01:57:14.673Z,22.61
2016-05-31T01:58:14.661Z,22.61
2016-05-31T01:59:14.647Z,22.56
2016-05-31T02:00:14.650Z,22.6
2016-05-31T02:01:14.622Z,22.59
2016-05-31T02:02:14.625Z,22.56
2016-05-31T02:03:14.705Z,22.57
2016-05-31T02:04:14.583Z,22.48
2016-05-31T02:05:14.413Z,22.57
2016-05-31T02:06:14.558Z,22.46
2016-05-31T02:07:14.544Z,22.46
2016-05-31T02:08:14.390Z,22.46
2016-05-31T02:09:14.377Z,22.48
2016-05-31T02:10:14.505Z,22.57
2016-05-31T02:11:14.742Z,22.46
2016-05-31T02:12:14.480Z,22.59
2016-05-31T02:13:14.466Z,22.48
2016-05-31T02:14:14.454Z,22.46
2016-05-31T02:15:14.441Z,22.52
2016-05-31T02:16:14.443Z,22.57
2016-05-31T02:17:14.415Z,22.48
2016-05-31T02:18:14.246Z,22.52
2016-05-31T02:19:15.343Z,22.48
2016-05-31T02:20:14.376Z,22.46
2016-05-31T02:21:14.207Z,22.59
2016-05-31T02:22:14.365Z,22.49
2016-05-31T02:23:14.196Z,22.54
2016-05-31T02:24:14.324Z,22.45
2016-05-31T02:25:14.312Z,22.49
2016-05-31T02:26:14.346Z,22.48
2016-05-31T02:27:14.723Z,22.61
2016-05-31T02:28:14.273Z,22.45
2016-05-31T02:29:14.260Z,22.59
2016-05-31T02:30:13.934Z,22.59
2016-05-31T02:31:14.234Z,22.49
2016-05-31T02:32:14.236Z,22.54
2016-05-31T02:33:14.208Z,22.59
2016-05-31T02:34:14.351Z,22.6
2016-05-31T02:35:14.182Z,22.54
2016-05-31T02:36:14.184Z,22.45
2016-05-31T02:37:14.172Z,22.51
2016-05-31T02:38:14.033Z,22.56
2016-05-31T02:39:14.130Z,22.48
2016-05-31T02:40:14.133Z,22.51
2016-05-31T02:41:14.104Z,22.48
2016-05-31T02:42:14.435Z,22.59
2016-05-31T02:43:14.078Z,22.46
2016-05-31T02:44:14.066Z,22.52
2016-05-31T02:45:14.052Z,22.57
2016-05-31T02:46:13.883Z,22.49
2016-05-31T02:47:14.026Z,22.51
2016-05-31T02:48:14.013Z,22.48
2016-05-31T02:49:14.001Z,22.6
2016-05-31T02:50:14.082Z,22.46
2016-05-31T02:51:13.975Z,22.59
2016-05-31T02:52:13.962Z,22.56
2016-05-31T02:53:13.793Z,22.51
2016-05-31T02:54:13.795Z,22.6
2016-05-31T02:55:13.923Z,22.45
2016-05-31T02:56:13.910Z,22.57
2016-05-31T02:57:13.741Z,22.48
2016-05-31T02:58:14.322Z,22.48
2016-05-31T02:59:13.871Z,22.63
2016-05-31T03:00:13.858Z,22.46
2016-05-31T03:01:13.846Z,22.44
2016-05-31T03:02:13.833Z,22.48
2016-05-31T03:03:13.648Z,22.48
2016-05-31T03:04:13.806Z,22.45
2016-05-31T03:05:13.637Z,22.46
2016-05-31T03:06:14.390Z,22.56
2016-05-31T03:07:13.767Z,22.49
2016-05-31T03:08:15.053Z,22.59
2016-05-31T03:09:13.742Z,22.59
2016-05-31T03:10:13.714Z,22.46
2016-05-31T03:11:13.732Z,22.59
2016-05-31T03:12:13.702Z,22.59
2016-05-31T03:13:13.691Z,22.48
2016-05-31T03:14:14.271Z,22.6
2016-05-31T03:15:13.664Z,22.49
2016-05-31T03:16:13.652Z,22.48
2016-05-31T03:17:13.638Z,22.61
2016-05-31T03:18:13.469Z,22.54
2016-05-31T03:19:13.613Z,22.46
2016-05-31T03:20:13.599Z,22.49
2016-05-31T03:21:13.587Z,22.54
2016-05-31T03:22:13.715Z,22.48
2016-05-31T03:23:15.077Z,22.52
2016-05-31T03:24:13.407Z,22.46
2016-05-31T03:25:13.535Z,22.48
2016-05-31T03:26:13.351Z,22.49
2016-05-31T03:27:13.337Z,22.61
2016-05-31T03:28:13.495Z,22.51
2016-05-31T03:29:13.468Z,22.56
2016-05-31T03:30:13.517Z,22.56
2016-05-31T03:31:13.442Z,22.56
2016-05-31T03:32:13.445Z,22.57
2016-05-31T03:33:13.259Z,22.57
2016-05-31T03:34:13.419Z,22.52
2016-05-31T03:35:13.234Z,22.56
2016-05-31T03:36:13.393Z,22.56
2016-05-31T03:37:13.364Z,22.56
2016-05-31T03:38:14.008Z,22.46
2016-05-31T03:39:13.354Z,22.49
2016-05-31T03:40:13.325Z,22.48
2016-05-31T03:41:13.328Z,22.45
2016-05-31T03:42:13.299Z,22.49
2016-05-31T03:43:13.130Z,22.45
2016-05-31T03:44:13.274Z,22.45
2016-05-31T03:45:13.260Z,22.54
2016-05-31T03:46:14.452Z,22.57
2016-05-31T03:47:13.235Z,22.56
2016-05-31T03:48:13.221Z,22.44
2016-05-31T03:49:13.210Z,22.56
2016-05-31T03:50:13.196Z,22.48
2016-05-31T03:51:13.182Z,22.54
2016-05-31T03:52:13.171Z,22.54
2016-05-31T03:53:13.157Z,22.52
2016-05-31T03:54:13.160Z,22.52
2016-05-31T03:55:13.132Z,22.48
2016-05-31T03:56:13.118Z,22.45
2016-05-31T03:57:13.121Z,22.48
2016-05-31T03:58:13.093Z,22.54
2016-05-31T03:59:13.079Z,22.52
2016-05-31T04:00:13.067Z,22.52
2016-05-31T04:01:13.069Z,22.41
2016-05-31T04:02:13.041Z,22.51
2016-05-31T04:03:13.043Z,22.44
2016-05-31T04:04:13.014Z,22.46
2016-05-31T04:05:13.003Z,22.46
2016-05-31T04:06:12.989Z,22.46
2016-05-31T04:07:12.991Z,22.49
2016-05-31T04:08:13.088Z,22.48
2016-05-31T04:09:12.951Z,22.49
2016-05-31T04:10:12.937Z,22.48
2016-05-31T04:11:12.955Z,22.45
2016-05-31T04:12:12.912Z,22.48
2016-05-31T04:13:12.899Z,22.51
2016-05-31T04:14:12.729Z,22.45
2016-05-31T04:15:12.888Z,22.49
2016-05-31T04:16:12.860Z,22.45
2016-05-31T04:17:12.847Z,22.46
2016-05-31T04:18:12.833Z,22.57
2016-05-31T04:19:12.821Z,22.52
2016-05-31T04:20:12.808Z,22.52
2016-05-31T04:21:12.795Z,22.49
2016-05-31T04:22:12.782Z,22.49
2016-05-31T04:23:13.472Z,22.41
2016-05-31T04:24:12.757Z,22.44
2016-05-31T04:25:12.587Z,22.51
2016-05-31T04:26:12.418Z,22.44
2016-05-31T04:27:12.702Z,22.49
2016-05-31T04:28:12.720Z,22.48
2016-05-31T04:29:12.706Z,22.49
2016-05-31T04:30:12.522Z,22.48
2016-05-31T04:31:12.666Z,22.48
2016-05-31T04:32:12.496Z,22.54
2016-05-31T04:33:12.639Z,22.52
2016-05-31T04:34:12.471Z,22.48
2016-05-31T04:35:12.754Z,22.46
2016-05-31T04:36:12.600Z,22.52
2016-05-31T04:37:12.589Z,22.54
2016-05-31T04:38:12.419Z,22.52
2016-05-31T04:39:12.562Z,22.52
2016-05-31T04:40:12.533Z,22.54
2016-05-31T04:41:12.537Z,22.44
2016-05-31T04:42:12.508Z,22.52
2016-05-31T04:43:12.744Z,22.51
2016-05-31T04:44:12.497Z,22.46
2016-05-31T04:45:12.469Z,22.46
2016-05-31T04:46:12.472Z,22.56
2016-05-31T04:47:12.458Z,22.48
2016-05-31T04:48:12.430Z,22.49
2016-05-31T04:49:12.277Z,22.51
2016-05-31T04:50:12.419Z,22.45
2016-05-31T04:51:12.751Z,22.39
2016-05-31T04:52:12.379Z,22.21
2016-05-31T04:53:12.225Z,21.99
2016-05-31T04:54:12.352Z,22.02
2016-05-31T04:55:12.355Z,21.94
2016-05-31T04:56:12.326Z,21.94
2016-05-31T04:57:12.313Z,22.11
2016-05-31T04:58:12.145Z,22.08
2016-05-31T04:59:12.756Z,22.17
2016-05-31T05:00:12.135Z,22.19
2016-05-31T05:01:12.262Z,22.2
2016-05-31T05:02:12.092Z,22.31
2016-05-31T05:03:12.237Z,22.29
2016-05-31T05:04:12.223Z,22.39
2016-05-31T05:05:12.070Z,22.35
2016-05-31T05:06:12.212Z,22.33
2016-05-31T05:07:12.795Z,22.45
2016-05-31T05:08:12.047Z,22.44
2016-05-31T05:09:12.002Z,22.38
2016-05-31T05:10:12.145Z,22.38
2016-05-31T05:11:12.132Z,22.48
2016-05-31T05:12:11.964Z,22.45
2016-05-31T05:13:12.122Z,22.49
2016-05-31T05:14:12.094Z,22.51
2016-05-31T05:15:12.784Z,22.52
2016-05-31T05:16:12.083Z,22.44
2016-05-31T05:17:12.055Z,22.44
2016-05-31T05:18:12.041Z,22.54
2016-05-31T05:19:12.030Z,22.52
2016-05-31T05:20:12.016Z,22.48
2016-05-31T05:21:11.847Z,22.56
2016-05-31T05:22:11.990Z,22.49
2016-05-31T05:23:12.868Z,22.45
2016-05-31T05:24:11.808Z,22.42
2016-05-31T05:25:11.951Z,22.31
2016-05-31T05:26:11.954Z,22.04
2016-05-31T05:27:11.926Z,21.9
2016-05-31T05:28:11.897Z,21.74
2016-05-31T05:29:11.884Z,21.75
2016-05-31T05:30:11.887Z,21.61
2016-05-31T05:31:12.077Z,21.74
2016-05-31T05:32:11.845Z,21.68
2016-05-31T05:33:11.848Z,21.75
2016-05-31T05:34:11.679Z,21.63
2016-05-31T05:35:11.807Z,21.63
2016-05-31T05:36:11.793Z,21.68
2016-05-31T05:37:11.796Z,21.71
2016-05-31T05:38:12.298Z,21.61
2016-05-31T05:39:12.801Z,21.63
2016-05-31T05:40:11.586Z,21.53
2016-05-31T05:41:11.728Z,21.52
2016-05-31T05:42:11.732Z,21.53
2016-05-31T05:43:11.719Z,21.42
2016-05-31T05:44:11.690Z,21.37
2016-05-31T05:45:11.692Z,21.38
2016-05-31T05:46:11.664Z,21.28
2016-05-31T05:47:12.105Z,21.3
2016-05-31T05:48:11.622Z,21.3
2016-05-31T05:49:11.625Z,21.42
2016-05-31T05:50:11.612Z,21.33
2016-05-31T05:51:11.600Z,21.43
2016-05-31T05:52:11.586Z,21.38
2016-05-31T05:53:11.588Z,21.28
2016-05-31T05:54:11.608Z,21.3
2016-05-31T05:55:11.532Z,21.28
2016-05-31T05:56:11.238Z,21.26
2016-05-31T05:57:11.515Z,21.26
2016-05-31T05:58:11.529Z,21.22
2016-05-31T05:59:11.558Z,21.37
2016-05-31T06:00:11.400Z,21.33
2016-05-31T06:01:11.429Z,21.36
2016-05-31T06:02:11.843Z,21.33
2016-05-31T06:03:11.574Z,21.22
2016-05-31T06:04:11.273Z,21.26
2016-05-31T06:05:11.568Z,21.19
2016-05-31T06:06:11.564Z,21.36
2016-05-31T06:07:11.402Z,21.26
2016-05-31T06:08:11.564Z,21.26
2016-05-31T06:09:11.525Z,21.26
2016-05-31T06:10:11.921Z,21.26
2016-05-31T06:11:11.521Z,21.26
2016-05-31T06:12:11.495Z,21.33
2016-05-31T06:13:11.498Z,21.27
2016-05-31T06:14:11.175Z,21.3
2016-05-31T06:15:11.475Z,21.27
2016-05-31T06:16:11.463Z,21.34
2016-05-31T06:17:11.451Z,21.51
2016-05-31T06:18:11.923Z,21.63
2016-05-31T06:19:11.410Z,21.68
2016-05-31T06:20:11.398Z,21.7
2016-05-31T06:21:11.385Z,21.81
2016-05-31T06:22:11.405Z,21.75
2016-05-31T06:23:11.360Z,21.82
2016-05-31T06:24:11.346Z,21.99
2016-05-31T06:25:11.335Z,21.99
2016-05-31T06:26:11.962Z,22.05
2016-05-31T06:27:11.324Z,22.11
2016-05-31T06:28:11.279Z,22.23
2016-05-31T06:29:11.282Z,22.23
2016-05-31T06:30:10.957Z,22.26
2016-05-31T06:31:11.256Z,22.26
2016-05-31T06:32:11.228Z,22.24
2016-05-31T06:33:11.214Z,22.29
2016-05-31T06:34:11.218Z,22.29
2016-05-31T06:35:11.204Z,22.31
2016-05-31T06:36:11.176Z,22.35
2016-05-31T06:37:11.162Z,22.33
2016-05-31T06:38:11.166Z,22.33
2016-05-31T06:39:11.153Z,22.29
2016-05-31T06:40:11.124Z,22.36
2016-05-31T06:41:10.955Z,22.36
2016-05-31T06:42:11.098Z,22.38
2016-05-31T06:43:11.086Z,22.46
2016-05-31T06:44:11.072Z,22.54
2016-05-31T06:45:11.059Z,22.49
2016-05-31T06:46:11.046Z,22.51
2016-05-31T06:47:11.034Z,22.48
2016-05-31T06:48:11.021Z,22.48
2016-05-31T06:49:11.008Z,22.48
2016-05-31T06:50:11.980Z,22.6
2016-05-31T06:51:10.982Z,22.6
2016-05-31T06:52:10.813Z,22.56
2016-05-31T06:53:11.221Z,22.56
2016-05-31T06:54:10.943Z,22.61
2016-05-31T06:55:10.930Z,22.56
2016-05-31T06:56:10.918Z,22.6
2016-05-31T06:57:10.998Z,22.61
2016-05-31T06:58:11.235Z,22.63
2016-05-31T06:59:10.863Z,22.64
2016-05-31T07:00:10.882Z,22.56
2016-05-31T07:01:10.696Z,22.72
2016-05-31T07:02:10.824Z,22.6
2016-05-31T07:03:10.826Z,22.67
2016-05-31T07:04:10.798Z,22.67
2016-05-31T07:05:10.848Z,22.67
2016-05-31T07:06:11.225Z,22.72
2016-05-31T07:07:10.759Z,22.7
2016-05-31T07:08:11.262Z,22.78
2016-05-31T07:09:10.578Z,22.66
2016-05-31T07:10:10.736Z,22.56
2016-05-31T07:11:10.551Z,22.49
2016-05-31T07:12:10.694Z,22.44
2016-05-31T07:13:10.729Z,22.3
2016-05-31T07:14:10.528Z,22.36
2016-05-31T07:15:10.656Z,22.36
2016-05-31T07:16:10.486Z,22.44
2016-05-31T07:17:10.614Z,22.39
2016-05-31T07:18:10.444Z,22.3
2016-05-31T07:19:10.589Z,22.3
2016-05-31T07:20:10.591Z,22.29
2016-05-31T07:21:10.875Z,22.33
2016-05-31T07:22:10.565Z,22.45
2016-05-31T07:23:10.819Z,22.49
2016-05-31T07:24:10.524Z,22.42
2016-05-31T07:25:10.510Z,22.51
2016-05-31T07:26:10.341Z,22.49
2016-05-31T07:27:10.485Z,22.56
2016-05-31T07:28:10.160Z,22.46
2016-05-31T07:29:10.959Z,22.46
2016-05-31T07:30:10.446Z,22.56
2016-05-31T07:31:10.137Z,22.59
2016-05-31T07:32:10.421Z,22.66
2016-05-31T07:33:10.251Z,22.66
2016-05-31T07:34:10.395Z,22.57
2016-05-31T07:35:10.381Z,22.52
2016-05-31T07:36:10.368Z,22.57
2016-05-31T07:37:10.903Z,22.66
2016-05-31T07:38:10.968Z,22.61
2016-05-31T07:39:10.314Z,22.69
2016-05-31T07:40:10.301Z,22.67
2016-05-31T07:41:10.132Z,22.7
2016-05-31T07:42:10.275Z,22.7
2016-05-31T07:43:10.278Z,22.64
2016-05-31T07:44:10.108Z,22.7
2016-05-31T07:45:10.737Z,22.66
2016-05-31T07:46:10.240Z,22.67
2016-05-31T07:47:10.211Z,22.67
2016-05-31T07:48:10.197Z,22.69
2016-05-31T07:49:10.216Z,22.69
2016-05-31T07:50:10.188Z,22.7
2016-05-31T07:51:10.175Z,22.67
2016-05-31T07:52:10.005Z,22.7
2016-05-31T07:53:10.399Z,22.69
2016-05-31T07:54:09.963Z,22.72
2016-05-31T07:55:10.123Z,22.67
2016-05-31T07:56:10.125Z,22.7
2016-05-31T07:57:10.082Z,22.69
2016-05-31T07:58:09.755Z,22.74
2016-05-31T07:59:10.055Z,22.72
2016-05-31T08:00:09.886Z,22.74
2016-05-31T08:01:10.171Z,22.75
2016-05-31T08:02:10.016Z,22.7
2016-05-31T08:03:10.003Z,22.75
2016-05-31T08:04:09.991Z,22.76
2016-05-31T08:05:09.994Z,22.78
2016-05-31T08:06:09.965Z,22.76
2016-05-31T08:07:09.951Z,22.84
2016-05-31T08:08:09.954Z,22.84
2016-05-31T08:09:10.019Z,22.81
2016-05-31T08:10:09.898Z,22.78
2016-05-31T08:11:09.916Z,22.78
2016-05-31T08:12:09.731Z,22.79
2016-05-31T08:13:09.874Z,22.75
2016-05-31T08:14:09.862Z,22.78
2016-05-31T08:15:09.848Z,22.81
2016-05-31T08:16:09.836Z,22.79
2016-05-31T08:17:10.213Z,22.81
2016-05-31T08:18:09.809Z,22.84
2016-05-31T08:19:09.796Z,22.79
2016-05-31T08:20:09.783Z,22.6
2016-05-31T08:21:09.771Z,22.49
2016-05-31T08:22:09.742Z,22.38
2016-05-31T08:23:09.760Z,22.38
2016-05-31T08:24:09.982Z,22.24
2016-05-31T08:25:10.219Z,22.26
2016-05-31T08:26:09.691Z,22.2
2016-05-31T08:27:09.693Z,22.12
2016-05-31T08:28:09.680Z,22.38
2016-05-31T08:29:09.651Z,22.57
2016-05-31T08:30:09.655Z,22.64
2016-05-31T08:31:09.641Z,22.85
2016-05-31T08:32:09.644Z,22.88
2016-05-31T08:33:09.631Z,22.91
2016-05-31T08:34:09.618Z,22.86
2016-05-31T08:35:09.590Z,22.94
2016-05-31T08:36:09.561Z,22.97
2016-05-31T08:37:09.408Z,22.91
2016-05-31T08:38:10.270Z,22.93
2016-05-31T08:39:10.116Z,22.88
2016-05-31T08:40:09.509Z,23.01
2016-05-31T08:41:09.528Z,22.88
2016-05-31T08:42:09.531Z,22.88
2016-05-31T08:43:09.517Z,22.96
2016-05-31T08:44:09.458Z,22.97
2016-05-31T08:45:09.476Z,22.91
2016-05-31T08:46:09.447Z,23
2016-05-31T08:47:09.419Z,23.01
2016-05-31T08:48:09.406Z,23.03
2016-05-31T08:49:09.409Z,22.93
2016-05-31T08:50:09.380Z,23
2016-05-31T08:51:09.367Z,23
2016-05-31T08:52:09.213Z,22.99
2016-05-31T08:53:09.060Z,23.01
2016-05-31T08:54:09.328Z,22.94
2016-05-31T08:55:09.331Z,22.88
2016-05-31T08:56:09.302Z,22.93
2016-05-31T08:57:09.289Z,22.86
2016-05-31T08:58:09.292Z,22.84
2016-05-31T08:59:09.263Z,22.84
2016-05-31T09:00:09.110Z,22.84
2016-05-31T09:01:09.238Z,23
2016-05-31T09:02:09.224Z,22.89
2016-05-31T09:03:09.071Z,23.01
2016-05-31T09:04:09.199Z,22.99
2016-05-31T09:05:09.029Z,22.93
2016-05-31T09:06:09.220Z,22.91
2016-05-31T09:07:09.176Z,22.96
2016-05-31T09:08:09.507Z,22.96
2016-05-31T09:09:09.150Z,23
2016-05-31T09:10:09.121Z,22.97
2016-05-31T09:11:09.123Z,22.88
2016-05-31T09:12:08.939Z,22.86
2016-05-31T09:13:09.082Z,22.86
2016-05-31T09:14:09.476Z,22.91
2016-05-31T09:15:09.056Z,22.85
2016-05-31T09:16:09.044Z,22.89
2016-05-31T09:17:09.014Z,22.93
2016-05-31T09:18:09.034Z,22.86
2016-05-31T09:19:09.005Z,22.91
2016-05-31T09:20:08.851Z,22.85
2016-05-31T09:21:09.385Z,22.89
2016-05-31T09:22:08.967Z,22.89
2016-05-31T09:23:08.812Z,22.88
2016-05-31T09:24:08.941Z,22.84
2016-05-31T09:25:08.943Z,22.84
2016-05-31T09:26:08.914Z,22.88
2016-05-31T09:27:08.901Z,22.86
2016-05-31T09:28:09.045Z,22.84
2016-05-31T09:29:09.375Z,22.91
2016-05-31T09:30:08.863Z,22.89
2016-05-31T09:31:08.849Z,22.94
2016-05-31T09:32:08.838Z,23.01
2016-05-31T09:33:08.667Z,22.94
2016-05-31T09:34:08.827Z,22.99
2016-05-31T09:35:08.798Z,22.97
2016-05-31T09:36:09.034Z,23.01
2016-05-31T09:37:08.772Z,22.93
2016-05-31T09:38:08.791Z,23
2016-05-31T09:39:08.746Z,23.03
2016-05-31T09:40:08.734Z,23.01
2016-05-31T09:41:08.564Z,23.03
2016-05-31T09:42:08.551Z,23
2016-05-31T09:43:08.709Z,22.99
2016-05-31T09:44:09.150Z,23
2016-05-31T09:45:08.684Z,22.94
2016-05-31T09:46:08.656Z,22.96
2016-05-31T09:47:08.642Z,23.01
2016-05-31T09:48:08.645Z,23.06
2016-05-31T09:49:08.617Z,23.06
2016-05-31T09:50:08.448Z,23.03
2016-05-31T09:51:08.591Z,23.16
2016-05-31T09:52:09.031Z,23.15
2016-05-31T09:53:08.580Z,23.09
2016-05-31T09:54:08.567Z,22.99
2016-05-31T09:55:08.399Z,23.04
2016-05-31T09:56:08.527Z,23.07
2016-05-31T09:57:08.513Z,22.97
2016-05-31T09:58:08.500Z,23.07
2016-05-31T09:59:08.330Z,22.99
2016-05-31T10:00:09.100Z,22.86
2016-05-31T10:01:08.461Z,22.84
2016-05-31T10:02:08.293Z,22.93
2016-05-31T10:03:08.435Z,22.86
2016-05-31T10:04:08.423Z,22.84
2016-05-31T10:05:08.503Z,22.79
2016-05-31T10:06:08.241Z,22.79
2016-05-31T10:07:08.399Z,22.91
2016-05-31T10:08:09.027Z,22.82
2016-05-31T10:09:08.373Z,22.82
2016-05-31T10:10:08.361Z,22.89
2016-05-31T10:11:08.363Z,22.89
2016-05-31T10:12:08.320Z,22.91
2016-05-31T10:13:08.306Z,22.79
2016-05-31T10:14:08.153Z,22.84
2016-05-31T10:15:08.280Z,22.89
2016-05-31T10:16:09.065Z,22.88
2016-05-31T10:17:08.254Z,22.86
2016-05-31T10:18:08.242Z,22.85
2016-05-31T10:19:08.228Z,22.84
2016-05-31T10:20:08.217Z,22.86
2016-05-31T10:21:08.203Z,22.85
2016-05-31T10:22:08.189Z,22.82
2016-05-31T10:23:08.193Z,22.88
2016-05-31T10:24:09.070Z,22.94
2016-05-31T10:25:08.166Z,22.94
2016-05-31T10:26:08.185Z,22.88
2016-05-31T10:27:08.141Z,22.86
2016-05-31T10:28:08.097Z,22.89
2016-05-31T10:29:08.099Z,22.94
2016-05-31T10:30:08.102Z,22.84
2016-05-31T10:31:08.089Z,22.88
2016-05-31T10:32:09.216Z,22.86
2016-05-31T10:33:08.063Z,22.88
2016-05-31T10:34:08.050Z,22.89
2016-05-31T10:35:08.021Z,22.85
2016-05-31T10:36:08.024Z,22.84
2016-05-31T10:37:08.012Z,22.86
2016-05-31T10:38:07.983Z,23.01
2016-05-31T10:39:07.970Z,23
2016-05-31T10:40:08.363Z,22.89
2016-05-31T10:41:07.960Z,22.93
2016-05-31T10:42:07.946Z,22.86
2016-05-31T10:43:07.934Z,22.96
2016-05-31T10:44:07.921Z,22.96
2016-05-31T10:45:07.892Z,22.88
2016-05-31T10:46:07.895Z,22.97
2016-05-31T10:47:07.882Z,22.94
2016-05-31T10:48:08.259Z,22.94
2016-05-31T10:49:07.685Z,22.99
2016-05-31T10:50:07.843Z,23.09
2016-05-31T10:51:07.815Z,23
2016-05-31T10:52:07.802Z,23.01
2016-05-31T10:53:07.804Z,23.04
2016-05-31T10:54:07.776Z,22.99
2016-05-31T10:55:07.763Z,22.99
2016-05-31T10:56:07.750Z,22.97
2016-05-31T10:57:07.753Z,23.04
2016-05-31T10:58:07.724Z,23.06
2016-05-31T10:59:07.711Z,23.01
2016-05-31T11:00:07.558Z,23.03
2016-05-31T11:01:07.685Z,23.06
2016-05-31T11:02:07.532Z,23.01
2016-05-31T11:03:07.519Z,23.03
2016-05-31T11:04:07.490Z,23.07
2016-05-31T11:05:07.633Z,23.09
2016-05-31T11:06:07.636Z,23.07
2016-05-31T11:07:07.607Z,22.99
2016-05-31T11:08:08.705Z,22.97
2016-05-31T11:09:07.582Z,23.01
2016-05-31T11:10:07.568Z,23
2016-05-31T11:11:07.556Z,22.97
2016-05-31T11:12:07.543Z,23.01
2016-05-31T11:13:07.529Z,23.09
2016-05-31T11:14:07.362Z,22.99
2016-05-31T11:15:07.520Z,22.99
2016-05-31T11:16:07.523Z,23.07
2016-05-31T11:17:07.495Z,23
2016-05-31T11:18:07.465Z,23.06
2016-05-31T11:19:07.453Z,23.09
2016-05-31T11:20:07.283Z,23.07
2016-05-31T11:21:07.380Z,23.03
2016-05-31T11:22:07.414Z,23.07
2016-05-31T11:23:07.698Z,23.09
2016-05-31T11:24:07.481Z,23.07
2016-05-31T11:25:07.219Z,23.22
2016-05-31T11:26:07.362Z,23.26
2016-05-31T11:27:07.192Z,23.25
2016-05-31T11:28:07.180Z,23.32
2016-05-31T11:29:07.386Z,23.23
2016-05-31T11:30:07.341Z,23.19
2016-05-31T11:31:07.141Z,23.23
2016-05-31T11:32:07.284Z,23.22
2016-05-31T11:33:07.288Z,23.31
2016-05-31T11:34:07.102Z,23.25
2016-05-31T11:35:07.246Z,23.21
2016-05-31T11:36:07.232Z,23.21
2016-05-31T11:37:07.376Z,23.21
2016-05-31T11:38:07.237Z,23.29
2016-05-31T11:39:07.053Z,23.26
2016-05-31T11:40:07.025Z,23.38
2016-05-31T11:41:07.184Z,23.38
2016-05-31T11:42:07.154Z,23.41
2016-05-31T11:43:07.158Z,23.41
2016-05-31T11:44:07.145Z,23.49
2016-05-31T11:45:07.366Z,23.39
2016-05-31T11:46:07.119Z,23.47
2016-05-31T11:47:07.090Z,23.42
2016-05-31T11:48:07.077Z,23.41
2016-05-31T11:49:07.080Z,23.31
2016-05-31T11:50:06.911Z,23.34
2016-05-31T11:51:07.039Z,23.29
2016-05-31T11:52:07.042Z,23.26
2016-05-31T11:53:07.434Z,23.31
2016-05-31T11:54:07.015Z,23.29
2016-05-31T11:55:06.986Z,23.23
2016-05-31T11:56:06.974Z,23.22
2016-05-31T11:57:06.961Z,23.38
2016-05-31T11:58:06.948Z,23.37
2016-05-31T11:59:06.950Z,23.31
2016-05-31T12:00:06.938Z,23.37
2016-05-31T12:01:07.408Z,23.32
2016-05-31T12:02:06.896Z,23.37
2016-05-31T12:03:06.884Z,23.39
2016-05-31T12:04:06.886Z,23.37
2016-05-31T12:05:06.874Z,23.29
2016-05-31T12:06:06.860Z,23.39
2016-05-31T12:07:06.862Z,23.34
2016-05-31T12:08:06.835Z,23.31
2016-05-31T12:09:07.463Z,23.34
2016-05-31T12:10:06.650Z,23.38
2016-05-31T12:11:06.793Z,23.41
2016-05-31T12:12:06.780Z,23.34
2016-05-31T12:13:06.767Z,23.39
2016-05-31T12:14:06.754Z,23.39
2016-05-31T12:15:06.569Z,23.39
2016-05-31T12:16:06.743Z,23.39
2016-05-31T12:17:06.699Z,23.39
2016-05-31T12:18:06.702Z,23.38
2016-05-31T12:19:06.689Z,23.37
2016-05-31T12:20:06.676Z,23.42
2016-05-31T12:21:06.507Z,23.37
2016-05-31T12:22:06.651Z,23.38
2016-05-31T12:23:06.654Z,23.38
2016-05-31T12:24:06.453Z,23.41
2016-05-31T12:25:06.705Z,23.37
2016-05-31T12:26:06.614Z,23.35
2016-05-31T12:27:06.586Z,23.32
2016-05-31T12:28:06.589Z,23.42
2016-05-31T12:29:06.560Z,23.44
2016-05-31T12:30:06.547Z,23.38
2016-05-31T12:31:06.534Z,23.39
2016-05-31T12:32:06.521Z,23.44
2016-05-31T12:33:06.758Z,23.38
2016-05-31T12:34:06.494Z,23.44
2016-05-31T12:35:06.341Z,23.38
2016-05-31T12:36:06.469Z,23.44
2016-05-31T12:37:06.457Z,23.41
2016-05-31T12:38:06.819Z,23.38
2016-05-31T12:39:06.430Z,23.39
2016-05-31T12:40:06.261Z,23.38
2016-05-31T12:41:07.498Z,23.32
2016-05-31T12:42:06.235Z,23.38
2016-05-31T12:43:06.394Z,23.34
2016-05-31T12:44:06.366Z,23.34
2016-05-31T12:45:06.368Z,23.37
2016-05-31T12:46:06.340Z,23.26
2016-05-31T12:47:06.326Z,23.31
2016-05-31T12:48:06.626Z,23.26
2016-05-31T12:49:06.161Z,23.29
2016-05-31T12:50:06.320Z,23.34
2016-05-31T12:51:06.307Z,23.39
2016-05-31T12:52:06.262Z,23.44
2016-05-31T12:53:07.171Z,23.38
2016-05-31T12:54:06.939Z,23.5
2016-05-31T12:55:06.333Z,23.39